An Nasiriyah, Iraq
Current Conditions -  °F | °C
As of 3:00 AM on Saturday 20 Dec 2014 (Local Time) from ORMM Reporting Station
Haze Haze  
Wind Chill: 57°   Ceiling: Unl
Heat Index: 57°   Visibility: 3mi
Dew Point: 50°   Wind: 6mph
Humidity: 77%   Direction: 120°ESE
Pressure: 30.12"   Gusts: NA
Location:  31.04°N, 46.26°E
Report Text: ORMM 200000Z 12005KT 5000 HZ NSC 14/10 Q1020 NOSIG
Loading
Personal Weather Stations






























Interactive Weather Map New forecast layout! Learn more

10-Day Weather Forecast

Advertisements
Track Severe Weather on mobile